Time;durP1;ratioP1;P1;durP2;ratioP2;P2;SDS_P1;SDS_P2;PMS_P1;PMS_P2;Temp;Humidity;BMP_temperature;BMP_pressure;BME280_temperature;BME280_humidity;BME280_pressure;Samples;Min_cycle;Max_cycle;Signal;HPM_P1;HPM_P2
2023/04/23 00:01:53;;;;;;;26.25;17.77;;;;;;;6.60;69.00;100557.00;1704909;82;21730;-59
2023/04/23 00:04:59;;;;;;;26.62;17.65;;;;;;;6.57;69.11;100560.89;1714816;83;21344;-58
2023/04/23 00:08:07;;;;;;;23.70;16.57;;;;;;;6.56;69.25;100562.40;1701725;82;21210;-59
2023/04/23 00:11:13;;;;;;;26.97;16.48;;;;;;;6.55;69.37;100557.45;1731537;82;21738;-58
2023/04/23 00:14:21;;;;;;;28.62;17.10;;;;;;;6.55;69.48;100559.34;1685991;84;21259;-58
2023/04/23 00:17:27;;;;;;;23.73;15.85;;;;;;;6.51;69.42;100572.84;1721887;83;21226;-59
2023/04/23 00:20:34;;;;;;;29.82;16.90;;;;;;;6.46;69.43;100562.91;1709196;83;21310;-59
2023/04/23 00:23:42;;;;;;;29.67;17.77;;;;;;;6.42;69.50;100559.64;1705701;83;21247;-58
2023/04/23 00:26:48;;;;;;;26.95;18.55;;;;;;;6.40;69.58;100561.64;1706087;83;21230;-58
2023/04/23 00:29:54;;;;;;;56.80;32.53;;;;;;;6.39;69.61;100559.07;1705821;83;21345;-58
2023/04/23 00:33:01;;;;;;;47.67;27.73;;;;;;;6.34;69.68;100554.07;1705623;83;21384;-58
2023/04/23 00:36:07;;;;;;;62.15;35.55;;;;;;;6.30;69.76;100556.70;1705887;83;21215;-58
2023/04/23 00:39:14;;;;;;;45.28;28.47;;;;;;;6.28;69.84;100558.70;1705641;83;21413;-58
2023/04/23 00:42:20;;;;;;;34.92;22.82;;;;;;;6.23;69.77;100552.87;1706188;83;21318;-58
2023/04/23 00:45:25;;;;;;;35.63;23.27;;;;;;;6.18;69.74;100551.08;1706210;83;21278;-58
2023/04/23 00:48:32;;;;;;;42.62;25.75;;;;;;;6.14;69.83;100565.94;1705782;83;21855;-58
2023/04/23 00:51:38;;;;;;;41.48;26.37;;;;;;;6.09;69.86;100572.30;1705850;83;21231;-59
2023/04/23 00:54:44;;;;;;;39.73;25.82;;;;;;;6.03;69.81;100570.16;1705713;83;21231;-58
2023/04/23 00:57:51;;;;;;;41.35;24.32;;;;;;;5.98;69.81;100580.09;1705522;83;21314;-60
2023/04/23 01:01:00;;;;;;;34.10;22.32;;;;;;;5.90;69.74;100581.79;1705580;83;21326;-58
2023/04/23 01:04:08;;;;;;;33.73;22.93;;;;;;;5.85;69.83;100578.67;1706137;83;21211;-59
2023/04/23 01:07:14;;;;;;;34.58;21.23;;;;;;;5.82;69.92;100571.64;1705694;83;21235;-59
2023/04/23 01:10:20;;;;;;;32.13;20.20;;;;;;;5.80;70.03;100579.55;1717964;83;21210;-58
2023/04/23 01:13:28;;;;;;;33.95;20.90;;;;;;;5.79;70.09;100573.73;1718628;82;21391;-58
2023/04/23 01:16:38;;;;;;;31.77;19.42;;;;;;;5.76;70.19;100576.73;1717070;82;21222;-59
2023/04/23 01:19:44;;;;;;;26.90;18.30;;;;;;;5.73;70.18;100584.68;1729181;82;21233;-59
2023/04/23 01:22:50;;;;;;;28.62;18.87;;;;;;;5.68;70.23;100580.66;1722272;82;21214;-58
2023/04/23 01:25:57;;;;;;;31.48;19.87;;;;;;;5.65;70.21;100581.81;1719675;82;21214;-58
2023/04/23 01:29:03;;;;;;;31.62;19.95;;;;;;;5.61;70.28;100583.06;1693315;83;21615;-57
2023/04/23 01:32:09;;;;;;;30.12;19.50;;;;;;;5.59;70.29;100582.86;1716516;82;21369;-57
2023/04/23 01:35:17;;;;;;;31.23;18.45;;;;;;;5.52;70.23;100581.20;1698019;83;21278;-58
2023/04/23 01:38:22;;;;;;;29.52;19.60;;;;;;;5.48;70.30;100579.77;1716285;83;21775;-58
2023/04/23 01:41:29;;;;;;;28.15;18.12;;;;;;;5.46;70.40;100583.60;1716451;83;21226;-58
2023/04/23 01:44:34;;;;;;;26.62;17.50;;;;;;;5.42;70.41;100581.66;1716658;83;21377;-58
2023/04/23 01:47:42;;;;;;;28.30;16.23;;;;;;;5.38;70.42;100587.02;1717582;83;21246;-58
2023/04/23 01:50:50;;;;;;;30.35;16.80;;;;;;;5.35;70.51;100584.58;1715259;82;21771;-58
2023/04/23 01:53:57;;;;;;;28.02;16.70;;;;;;;5.32;70.53;100583.50;1716406;82;21334;-58
2023/04/23 01:57:04;;;;;;;27.65;16.73;;;;;;;5.29;70.56;100593.28;1716032;82;21357;-58
2023/04/23 02:00:16;;;;;;;26.62;16.82;;;;;;;5.24;70.60;100593.31;1715883;82;21661;-58
2023/04/23 02:03:21;;;;;;;29.25;16.45;;;;;;;5.18;70.49;100587.09;1716247;82;21183;-58
2023/04/23 02:06:27;;;;;;;23.75;15.83;;;;;;;5.13;70.56;100593.41;1716067;83;21222;-58
2023/04/23 02:09:34;;;;;;;30.15;16.40;;;;;;;5.11;70.65;100598.11;1716188;82;21400;-58
2023/04/23 02:12:41;;;;;;;30.05;15.80;;;;;;;5.06;70.61;100597.16;1690054;83;21237;-58
2023/04/23 02:15:47;;;;;;;31.68;15.70;;;;;;;4.99;70.53;100593.78;1689739;83;21213;-58
2023/04/23 02:18:54;;;;;;;23.12;16.07;;;;;;;4.96;70.60;100595.41;1690886;84;21298;-58
2023/04/23 02:22:01;;;;;;;26.48;16.25;;;;;;;4.92;70.60;100599.37;1697289;82;21249;-58
2023/04/23 02:25:07;;;;;;;24.57;15.15;;;;;;;4.87;70.59;100605.72;1697273;84;21261;-58
2023/04/23 02:28:14;;;;;;;26.42;14.23;;;;;;;4.85;70.68;100600.91;1697001;82;21434;-58
2023/04/23 02:31:20;;;;;;;22.75;14.55;;;;;;;4.84;70.84;100600.53;1694827;84;21358;-59
2023/04/23 02:34:28;;;;;;;22.73;14.85;;;;;;;4.84;70.98;100599.18;1697191;84;21410;-58
2023/04/23 02:37:35;;;;;;;25.55;14.53;;;;;;;4.82;70.91;100605.26;1696780;84;21430;-58
2023/04/23 02:40:42;;;;;;;27.37;15.38;;;;;;;4.80;70.92;100612.66;1689347;85;21241;-58
2023/04/23 02:43:48;;;;;;;22.67;15.30;;;;;;;4.79;71.06;100611.79;1689547;83;21208;-57
2023/04/23 02:46:55;;;;;;;27.90;14.15;;;;;;;4.79;71.12;100615.02;1689501;83;21394;-57
2023/04/23 02:50:04;;;;;;;23.30;13.88;;;;;;;4.78;71.14;100613.28;1689587;83;21217;-58
2023/04/23 02:53:11;;;;;;;23.30;13.58;;;;;;;4.77;71.14;100625.13;1688219;85;21641;-58
2023/04/23 02:56:16;;;;;;;27.90;13.43;;;;;;;4.76;71.21;100620.20;1692849;84;21304;-58
2023/04/23 02:59:22;;;;;;;22.85;13.00;;;;;;;4.76;71.28;100615.29;1689528;85;21209;-58
2023/04/23 03:02:28;;;;;;;25.70;14.60;;;;;;;4.76;71.34;100616.13;1689555;85;21316;-58
2023/04/23 03:05:37;;;;;;;25.40;13.70;;;;;;;4.75;71.32;100621.69;1689537;85;21239;-58
2023/04/23 03:08:42;;;;;;;23.18;13.00;;;;;;;4.75;71.33;100625.27;1689616;83;21205;-57
2023/04/23 03:11:49;;;;;;;20.05;12.23;;;;;;;4.74;71.28;100627.59;1695983;81;21591;-58
2023/04/23 03:14:54;;;;;;;21.50;12.90;;;;;;;4.70;71.15;100626.64;1706598;84;21199;-58
2023/04/23 03:18:00;;;;;;;18.45;12.18;;;;;;;4.71;71.26;100622.96;1706099;83;21235;-58
2023/04/23 03:21:05;;;;;;;23.38;14.30;;;;;;;4.75;71.47;100630.69;1705783;83;21254;-58
2023/04/23 03:24:10;;;;;;;22.17;14.33;;;;;;;4.80;71.61;100635.22;1705809;83;21211;-58
2023/04/23 03:27:15;;;;;;;18.65;12.93;;;;;;;4.82;71.57;100640.52;1706401;83;21269;-58
2023/04/23 03:30:21;;;;;;;22.30;13.58;;;;;;;4.82;71.58;100638.64;1705940;83;21215;-58
2023/04/23 03:33:27;;;;;;;26.50;17.15;;;;;;;4.86;71.66;100637.88;1689305;83;21258;-59
2023/04/23 03:36:33;;;;;;;24.27;15.75;;;;;;;4.90;71.74;100646.97;1705911;83;21187;-58
2023/04/23 03:39:39;;;;;;;29.00;18.00;;;;;;;4.94;71.75;100649.80;1706392;83;21337;-58
2023/04/23 03:42:45;;;;;;;26.30;17.82;;;;;;;4.96;71.78;100653.73;1705772;83;21270;-57
2023/04/23 03:45:52;;;;;;;35.15;20.35;;;;;;;5.01;71.88;100663.17;1703756;83;21191;-58
2023/04/23 03:49:00;;;;;;;28.45;17.70;;;;;;;5.07;71.93;100661.79;1706108;83;21223;-58
2023/04/23 03:52:07;;;;;;;44.93;21.37;;;;;;;5.11;71.97;100660.52;1705983;83;21393;-58
2023/04/23 03:55:14;;;;;;;43.58;24.23;;;;;;;5.15;71.99;100660.63;1706358;83;21183;-58
2023/04/23 03:58:20;;;;;;;34.13;20.62;;;;;;;5.19;71.93;100666.12;1705777;83;21239;-58
2023/04/23 04:01:26;;;;;;;31.77;20.32;;;;;;;5.21;71.93;100669.58;1706038;83;21362;-58
2023/04/23 04:04:32;;;;;;;30.88;19.35;;;;;;;5.25;72.02;100666.45;1706076;83;21223;-58
2023/04/23 04:07:42;;;;;;;34.40;22.00;;;;;;;5.32;72.09;100670.84;1706890;83;21369;-58
2023/04/23 04:10:49;;;;;;;38.28;27.70;;;;;;;5.39;72.16;100674.75;1706444;83;21199;-58
2023/04/23 04:13:56;;;;;;;42.50;27.27;;;;;;;5.44;72.18;100676.05;1717284;82;21285;-58
2023/04/23 04:17:01;;;;;;;36.28;25.48;;;;;;;5.50;72.24;100680.92;1729347;83;21254;-58
2023/04/23 04:20:08;;;;;;;33.73;23.00;;;;;;;5.58;72.19;100684.34;1730251;82;21372;-58
2023/04/23 04:23:13;;;;;;;31.73;20.92;;;;;;;5.62;72.14;100685.28;1729911;82;21277;-58
2023/04/23 04:26:20;;;;;;;34.83;20.85;;;;;;;5.74;72.19;100688.77;1714338;83;21253;-58
2023/04/23 04:29:27;;;;;;;29.92;20.23;;;;;;;5.84;72.28;100691.02;1729312;82;21337;-59
2023/04/23 04:32:34;;;;;;;32.75;20.62;;;;;;;5.98;72.44;100694.22;1729319;83;21360;-57
2023/04/23 04:35:44;;;;;;;30.72;19.02;;;;;;;6.10;72.49;100694.97;1729384;83;21340;-59
2023/04/23 04:39:02;;;;;;;25.05;17.35;;;;;;;6.22;72.60;100697.04;1729179;83;21277;-59
2023/04/23 04:42:08;;;;;;;24.07;15.85;;;;;;;6.35;72.72;100705.30;1709794;83;21249;-58
2023/04/23 04:45:15;;;;;;;20.45;13.53;;;;;;;6.48;72.80;100703.17;1716038;83;21294;-59
2023/04/23 04:48:21;;;;;;;22.65;13.30;;;;;;;6.59;72.86;100708.48;1711704;83;21898;-59
2023/04/23 04:51:30;;;;;;;16.12;12.70;;;;;;;6.72;72.81;100715.86;1728352;82;21430;-59
2023/04/23 04:54:35;;;;;;;17.65;13.53;;;;;;;6.85;72.81;100710.97;1716953;83;21258;-59
2023/04/23 04:57:42;;;;;;;18.50;13.20;;;;;;;6.99;72.90;100714.59;1728922;83;21403;-58
2023/04/23 05:00:52;;;;;;;17.45;11.97;;;;;;;7.14;72.98;100709.08;1751626;81;21592;-58
2023/04/23 05:03:57;;;;;;;18.55;12.28;;;;;;;7.30;73.07;100709.33;1735946;82;21233;-58
2023/04/23 05:07:04;;;;;;;22.62;11.40;;;;;;;7.47;73.17;100716.73;1713526;82;21264;-59
2023/04/23 05:10:13;;;;;;;20.60;12.78;;;;;;;7.65;73.27;100718.19;1703356;83;21201;-59
2023/04/23 05:13:20;;;;;;;23.15;11.95;;;;;;;7.80;73.34;100715.84;1733684;81;21218;-59
2023/04/23 05:16:26;;;;;;;20.57;11.78;;;;;;;7.98;73.43;100716.23;1752884;81;21272;-59
2023/04/23 05:19:32;;;;;;;18.85;12.35;;;;;;;8.15;73.50;100720.03;1713308;82;21718;-59
2023/04/23 05:22:37;;;;;;;15.90;11.75;;;;;;;8.34;73.57;100718.59;1755615;81;21225;-59
2023/04/23 05:25:45;;;;;;;19.70;11.25;;;;;;;8.50;73.64;100722.87;1756097;81;21209;-59
2023/04/23 05:28:51;;;;;;;18.10;10.78;;;;;;;8.67;73.69;100720.65;1755807;81;21722;-59
2023/04/23 05:31:58;;;;;;;15.83;11.28;;;;;;;8.87;73.76;100730.39;1755514;81;21857;-59
2023/04/23 05:35:06;;;;;;;16.02;9.70;;;;;;;9.02;73.81;100723.38;1755658;81;21355;-60
2023/04/23 05:38:12;;;;;;;20.60;11.40;;;;;;;9.21;73.87;100732.75;1755342;81;21213;-59
2023/04/23 05:41:19;;;;;;;19.37;11.85;;;;;;;9.39;73.91;100734.92;1755618;81;21201;-60
2023/04/23 05:44:24;;;;;;;17.77;12.07;;;;;;;9.58;73.99;100731.98;1755582;81;21248;-59
2023/04/23 05:47:32;;;;;;;16.75;13.83;;;;;;;9.73;73.98;100733.11;1755814;81;21237;-59
2023/04/23 05:50:38;;;;;;;19.85;13.72;;;;;;;9.87;73.96;100731.14;1755924;81;21268;-59
2023/04/23 05:53:45;;;;;;;15.13;11.08;;;;;;;10.00;73.93;100734.29;1742923;82;21225;-59
2023/04/23 05:56:50;;;;;;;12.82;8.83;;;;;;;10.15;73.92;100727.19;1743606;81;21237;-59
2023/04/23 05:59:56;;;;;;;13.58;8.35;;;;;;;10.28;73.94;100728.96;1761872;81;21264;-59
2023/04/23 06:03:06;;;;;;;13.40;7.95;;;;;;;10.43;73.94;100731.92;1761955;81;21406;-59
2023/04/23 06:06:14;;;;;;;12.35;8.05;;;;;;;10.55;73.92;100734.18;1750296;81;21389;-59
2023/04/23 06:09:20;;;;;;;13.85;8.25;;;;;;;10.68;73.93;100727.34;1721897;83;21263;-59
2023/04/23 06:12:27;;;;;;;12.55;8.15;;;;;;;10.83;73.94;100733.90;1714125;83;21248;-59
2023/04/23 06:15:33;;;;;;;9.93;7.67;;;;;;;10.96;74.00;100738.34;1712561;81;21767;-59
2023/04/23 06:18:41;;;;;;;10.15;8.03;;;;;;;11.10;74.02;100739.06;1709771;84;21240;-59
2023/04/23 06:21:46;;;;;;;10.25;7.60;;;;;;;11.25;74.04;100744.19;1771593;80;21208;-59
2023/04/23 06:24:52;;;;;;;10.98;7.35;;;;;;;11.42;74.08;100741.77;1728651;83;21189;-58
2023/04/23 06:27:59;;;;;;;13.28;8.03;;;;;;;11.54;74.09;100739.88;1728647;83;21363;-59
2023/04/23 06:31:08;;;;;;;12.88;7.95;;;;;;;11.71;74.12;100739.38;1729310;81;21261;-59
2023/04/23 06:34:14;;;;;;;12.53;7.33;;;;;;;11.85;74.09;100746.89;1731621;82;21354;-59
2023/04/23 06:37:21;;;;;;;13.00;7.55;;;;;;;11.98;74.07;100747.20;1739204;82;21385;-59
2023/04/23 06:40:28;;;;;;;11.05;7.65;;;;;;;12.13;74.07;100748.17;1744862;82;21193;-60
2023/04/23 06:43:35;;;;;;;13.48;7.80;;;;;;;12.28;74.08;100746.92;1734670;82;21190;-59
2023/04/23 06:46:49;;;;;;;11.63;7.37;;;;;;;12.43;74.12;100745.98;1742713;81;21234;-59
2023/04/23 06:49:56;;;;;;;10.72;7.00;;;;;;;12.59;74.09;100749.19;1751694;81;21254;-59
2023/04/23 06:53:03;;;;;;;9.10;5.83;;;;;;;12.74;74.08;100751.49;1755942;80;21407;-60
2023/04/23 06:56:09;;;;;;;8.85;5.70;;;;;;;12.85;74.03;100747.83;1726235;81;21259;-60
2023/04/23 06:59:16;;;;;;;9.28;5.55;;;;;;;13.01;74.00;100747.75;1730457;80;21253;-60
2023/04/23 07:02:23;;;;;;;8.53;5.12;;;;;;;13.13;73.92;100754.52;1733673;82;21242;-59
2023/04/23 07:05:29;;;;;;;9.48;5.55;;;;;;;13.28;73.90;100749.95;1744383;82;21738;-60
2023/04/23 07:08:35;;;;;;;7.67;5.30;;;;;;;13.41;73.79;100746.03;1745261;82;21276;-60
2023/04/23 07:11:41;;;;;;;8.30;4.65;;;;;;;13.54;73.71;100749.02;1744921;82;21233;-59
2023/04/23 07:14:47;;;;;;;7.80;4.83;;;;;;;13.68;73.69;100753.37;1744634;82;21214;-59
2023/04/23 07:17:54;;;;;;;10.43;5.10;;;;;;;13.82;73.66;100745.14;1733243;82;21281;-59
2023/04/23 07:21:01;;;;;;;11.25;5.45;;;;;;;13.96;73.61;100752.56;1699243;84;21189;-59
2023/04/23 07:24:08;;;;;;;10.15;5.05;;;;;;;14.12;73.63;100750.14;1720118;83;21206;-60
2023/04/23 07:27:14;;;;;;;8.75;4.90;;;;;;;14.25;73.59;100748.98;1731318;83;21273;-60
2023/04/23 07:30:21;;;;;;;12.18;5.20;;;;;;;14.37;73.47;100762.09;1731862;83;21250;-59
2023/04/23 07:33:29;;;;;;;8.20;4.80;;;;;;;14.47;73.34;100749.40;1716838;83;21273;-60
2023/04/23 07:36:36;;;;;;;6.75;4.72;;;;;;;14.59;73.26;100756.11;1732151;83;21616;-60
2023/04/23 07:39:41;;;;;;;11.88;4.72;;;;;;;14.72;73.19;100754.39;1728038;81;21264;-60
2023/04/23 07:42:50;;;;;;;6.95;4.17;;;;;;;14.84;73.12;100756.13;1676984;84;21809;-61
2023/04/23 07:45:56;;;;;;;8.65;3.95;;;;;;;14.98;73.03;100757.44;1711691;83;21208;-60
2023/04/23 07:49:03;;;;;;;6.33;3.90;;;;;;;15.12;72.92;100763.11;1711722;83;21838;-60
2023/04/23 07:52:08;;;;;;;9.15;4.17;;;;;;;15.20;72.76;100756.95;1733846;81;21241;-59
2023/04/23 07:55:16;;;;;;;11.43;4.12;;;;;;;15.29;72.57;100760.41;1742881;81;21221;-59
2023/04/23 07:58:22;;;;;;;13.75;4.40;;;;;;;15.41;72.48;100753.37;1728037;83;21739;-60
2023/04/23 08:01:27;;;;;;;8.03;4.00;;;;;;;15.51;72.31;100757.48;1730569;83;21230;-59
2023/04/23 08:04:34;;;;;;;5.80;3.60;;;;;;;15.62;72.18;100751.98;1730261;83;21792;-60
2023/04/23 08:07:41;;;;;;;4.92;3.55;;;;;;;15.74;72.06;100752.61;1730454;82;21226;-60
2023/04/23 08:10:47;;;;;;;7.03;3.60;;;;;;;15.86;71.91;100751.52;1731070;83;21293;-60
2023/04/23 08:13:53;;;;;;;8.78;3.47;;;;;;;15.97;71.75;100750.44;1730530;83;21218;-60
2023/04/23 08:16:59;;;;;;;7.53;3.58;;;;;;;16.04;71.56;100751.34;1717503;83;21269;-58
2023/04/23 08:20:06;;;;;;;6.35;3.20;;;;;;;16.13;71.30;100744.60;1746368;82;21276;-60
2023/04/23 08:23:14;;;;;;;4.72;3.27;;;;;;;16.26;71.13;100747.45;1726663;81;21391;-60
2023/04/23 08:26:22;;;;;;;7.28;3.33;;;;;;;16.35;70.89;100742.07;1747465;82;21423;-60
2023/04/23 08:29:28;;;;;;;8.08;3.67;;;;;;;16.43;70.66;100746.05;1746900;82;21217;-59
2023/04/23 08:32:36;;;;;;;5.70;3.08;;;;;;;16.50;70.48;100745.25;1747072;82;21379;-58
2023/04/23 08:35:45;;;;;;;7.67;3.52;;;;;;;16.59;70.25;100742.11;1746867;81;21845;-59
2023/04/23 08:38:51;;;;;;;8.70;3.45;;;;;;;16.66;70.04;100743.52;1741114;82;21255;-60
2023/04/23 08:42:01;;;;;;;7.05;3.90;;;;;;;16.77;69.88;100735.50;1737781;81;21244;-59
2023/04/23 08:45:07;;;;;;;5.97;3.40;;;;;;;16.86;69.67;100728.71;1719180;82;21248;-59
2023/04/23 08:48:17;;;;;;;5.58;3.10;;;;;;;16.97;69.42;100729.48;1710128;83;21244;-59
2023/04/23 08:51:25;;;;;;;5.83;3.27;;;;;;;17.09;69.13;100731.13;1697334;83;21201;-59
2023/04/23 08:54:35;;;;;;;6.97;3.50;;;;;;;17.19;68.89;100731.55;1719627;82;21206;-60
2023/04/23 08:57:41;;;;;;;7.80;4.50;;;;;;;17.31;68.73;100727.98;1684388;85;21805;-59
2023/04/23 09:00:49;;;;;;;7.10;3.83;;;;;;;17.51;68.64;100728.87;1713142;82;21193;-59
2023/04/23 09:03:55;;;;;;;5.20;3.08;;;;;;;17.71;68.44;100720.58;1715998;81;21300;-61
2023/04/23 09:07:09;;;;;;;4.60;3.05;;;;;;;17.82;67.97;100718.54;1735580;80;21712;-60
2023/04/23 09:10:12;;;;;;;5.78;3.72;;;;;;;17.83;67.64;100716.94;1708661;82;21572;-60
2023/04/23 09:13:19;;;;;;;6.30;3.80;;;;;;;17.83;67.30;100718.33;1726015;81;21221;-59
2023/04/23 09:16:25;;;;;;;9.58;4.67;;;;;;;17.86;66.97;100720.66;1698705;81;21196;-59
2023/04/23 09:19:31;;;;;;;5.20;3.67;;;;;;;17.86;66.70;100718.41;1706891;82;21601;-59
2023/04/23 09:22:51;;;;;;;9.40;3.58;;;;;;;17.84;66.37;100713.61;1747654;80;21230;-59
2023/04/23 09:26:02;;;;;;;6.58;3.30;;;;;;;17.84;66.24;100715.00;1740544;80;21185;-60
2023/04/23 09:29:08;;;;;;;9.90;4.08;;;;;;;17.83;65.95;100718.84;1741943;81;21824;-60
2023/04/23 09:32:17;;;;;;;6.30;4.03;;;;;;;17.82;65.74;100707.46;1747789;80;21298;-60
2023/04/23 09:35:24;;;;;;;7.83;3.98;;;;;;;17.81;65.46;100707.13;1753486;79;21204;-61
2023/04/23 09:38:31;;;;;;;11.43;4.08;;;;;;;17.79;65.21;100705.95;1755011;80;21808;-60
2023/04/23 09:41:38;;;;;;;5.75;3.40;;;;;;;17.76;64.90;100702.75;1743940;80;21242;-60
2023/04/23 09:44:45;;;;;;;5.28;3.30;;;;;;;17.71;64.66;100702.02;1754362;81;21742;-61
2023/04/23 09:47:57;;;;;;;7.00;3.55;;;;;;;17.69;64.41;100703.31;1745250;80;21833;-60
2023/04/23 09:51:02;;;;;;;10.25;3.47;;;;;;;17.67;64.17;100699.89;1737111;81;21264;-60
2023/04/23 09:54:09;;;;;;;6.65;3.65;;;;;;;17.67;63.98;100700.76;1723660;83;21208;-60
2023/04/23 09:57:18;;;;;;;7.70;3.67;;;;;;;17.69;63.80;100704.17;1683549;85;21287;-61
2023/04/23 10:00:29;;;;;;;15.32;3.70;;;;;;;17.72;63.55;100705.13;1718233;82;21574;-61
2023/04/23 10:03:35;;;;;;;7.47;4.03;;;;;;;17.74;63.21;100710.45;1725403;81;21228;-60
2023/04/23 10:06:42;;;;;;;9.83;3.70;;;;;;;17.75;62.95;100712.14;1742903;81;21213;-61
2023/04/23 10:09:44;;;;;;;8.73;3.60;;;;;;;17.75;62.75;100720.45;1723856;80;21211;-60
2023/04/23 10:12:37;;;;;;;5.85;3.17;;;;;;;17.68;62.30;100712.66;1718838;82;21228;-60
2023/04/23 10:15:26;;;;;;;7.08;3.85;;;;;;;17.63;61.94;100718.84;1741058;80;21220;-60
2023/04/23 10:18:21;;;;;;;5.97;3.35;;;;;;;17.58;61.63;100723.34;1743876;81;21246;-62
2023/04/23 10:21:27;;;;;;;4.55;2.62;;;;;;;17.52;61.40;100728.34;1745213;81;21288;-60
2023/04/23 10:24:36;;;;;;;9.00;3.20;;;;;;;17.45;61.13;100728.86;1742740;80;21200;-61
2023/04/23 10:27:45;;;;;;;7.65;3.25;;;;;;;17.42;60.93;100730.64;1746139;80;21216;-61
2023/04/23 10:30:53;;;;;;;9.80;3.33;;;;;;;17.40;60.67;100732.75;1748041;79;21247;-60
2023/04/23 10:34:04;;;;;;;8.73;3.25;;;;;;;17.37;60.34;100730.41;1727238;81;21202;-60
2023/04/23 10:37:08;;;;;;;7.55;3.60;;;;;;;17.39;60.24;100729.68;1741784;82;21208;-60
2023/04/23 10:40:20;;;;;;;11.12;5.85;;;;;;;17.45;60.18;100732.49;1712308;83;21257;-59
2023/04/23 10:43:25;;;;;;;14.33;7.12;;;;;;;17.55;60.14;100738.44;1698893;83;21271;-59
2023/04/23 10:46:37;;;;;;;7.97;4.60;;;;;;;17.68;59.89;100741.73;1681789;85;21774;-59
2023/04/23 10:49:45;;;;;;;6.25;3.35;;;;;;;17.75;59.43;100739.31;1683082;83;21611;-59
2023/04/23 10:52:56;;;;;;;8.25;3.30;;;;;;;17.66;58.86;100738.36;1670343;84;21214;-59
2023/04/23 10:56:15;;;;;;;5.10;3.17;;;;;;;17.64;58.67;100738.57;1728682;82;21844;-59
2023/04/23 10:59:29;;;;;;;4.90;3.20;;;;;;;17.53;58.34;100733.67;1726885;82;21597;-59
2023/04/23 11:02:34;;;;;;;6.65;3.65;;;;;;;17.41;58.22;100735.87;1713453;83;21211;-60
2023/04/23 11:05:43;;;;;;;4.90;2.90;;;;;;;17.44;58.23;100738.20;1700004;83;21741;-60
2023/04/23 11:09:00;;;;;;;5.35;3.00;;;;;;;17.44;58.00;100734.05;1683180;85;21232;-61
2023/04/23 11:12:09;;;;;;;9.05;3.20;;;;;;;17.46;57.88;100733.32;1734240;82;21356;-60
2023/04/23 11:15:23;;;;;;;9.68;3.25;;;;;;;17.59;57.83;100738.87;1727407;82;21740;-59
2023/04/23 11:18:31;;;;;;;4.78;2.80;;;;;;;17.76;57.75;100747.93;1689966;84;21246;-59
2023/04/23 11:22:13;;;;;;;5.80;2.92;;;;;;;17.87;57.48;100746.42;1701418;82;21302;-59
2023/04/23 11:25:31;;;;;;;6.80;2.90;;;;;;;17.96;57.30;100754.85;1710028;84;21247;-59
2023/04/23 11:28:37;;;;;;;6.22;3.02;;;;;;;18.07;57.06;100750.05;1700806;84;21636;-60
2023/04/23 11:31:44;;;;;;;7.37;3.35;;;;;;;18.18;56.88;100748.00;1701536;83;21684;-60
2023/04/23 11:34:53;;;;;;;8.93;2.95;;;;;;;18.30;56.67;100753.19;1702516;83;21331;-60
2023/04/23 11:38:00;;;;;;;7.17;3.50;;;;;;;18.46;56.49;100757.44;1722439;83;21289;-60
2023/04/23 11:41:07;;;;;;;4.78;3.35;;;;;;;18.62;56.48;100756.44;1699668;84;21270;-60
2023/04/23 11:44:12;;;;;;;4.65;3.02;;;;;;;18.80;56.32;100754.34;1701568;83;21293;-60
2023/04/23 11:47:20;;;;;;;6.62;2.83;;;;;;;18.81;55.78;100751.34;1706267;84;21289;-61
2023/04/23 11:50:31;;;;;;;9.38;6.08;;;;;;;18.71;55.32;100744.57;1708015;83;21268;-61
2023/04/23 11:53:37;;;;;;;18.48;11.40;;;;;;;18.67;55.12;100744.16;1732278;81;21201;-58
2023/04/23 11:56:45;;;;;;;12.70;7.85;;;;;;;18.65;54.93;100740.73;1723099;81;21210;-60
2023/04/23 11:59:50;;;;;;;12.68;7.15;;;;;;;18.63;54.72;100742.04;1758504;80;21179;-59
2023/04/23 12:03:07;;;;;;;7.55;4.28;;;;;;;18.58;54.41;100736.30;1736025;81;21259;-59
2023/04/23 12:06:14;;;;;;;12.78;5.25;;;;;;;18.58;54.40;100739.93;1704274;82;21853;-59
2023/04/23 12:09:22;;;;;;;8.08;3.20;;;;;;;18.59;54.20;100746.30;1735675;80;21240;-59
2023/04/23 12:12:28;;;;;;;6.60;3.15;;;;;;;18.58;53.95;100743.23;1723028;81;21221;-59
2023/04/23 12:15:33;;;;;;;6.70;2.92;;;;;;;18.48;53.54;100733.13;1738935;81;21241;-59
2023/04/23 12:18:46;;;;;;;4.87;2.95;;;;;;;18.37;53.41;100734.63;1739412;82;21231;-60
2023/04/23 12:22:07;;;;;;;6.83;3.95;;;;;;;18.36;53.36;100729.30;1725595;81;21207;-59
2023/04/23 12:25:12;;;;;;;4.97;3.08;;;;;;;18.38;53.25;100732.19;1687078;84;21280;-59
2023/04/23 12:28:20;;;;;;;5.53;3.02;;;;;;;18.49;53.14;100732.91;1702191;83;21219;-60
2023/04/23 12:31:32;;;;;;;4.12;2.77;;;;;;;18.62;52.97;100730.61;1716161;83;21324;-60
2023/04/23 12:34:40;;;;;;;7.20;3.15;;;;;;;18.74;52.73;100724.16;1709980;84;21516;-60
2023/04/23 12:37:47;;;;;;;3.40;2.67;;;;;;;18.86;52.52;100725.70;1715916;81;21245;-59
2023/04/23 12:40:54;;;;;;;4.45;2.75;;;;;;;18.93;52.23;100720.42;1710654;83;21259;-59
2023/04/23 12:43:59;;;;;;;6.72;2.87;;;;;;;18.86;51.91;100718.77;1715461;82;21337;-59
2023/04/23 12:47:10;;;;;;;7.72;3.47;;;;;;;18.78;51.78;100714.34;1696347;81;21254;-60
2023/04/23 12:50:17;;;;;;;9.40;3.25;;;;;;;18.80;51.80;100714.11;1676012;84;21208;-59
2023/04/23 12:53:22;;;;;;;5.53;2.70;;;;;;;18.93;51.83;100717.66;1674051;84;21635;-59
2023/04/23 12:56:30;;;;;;;9.13;2.90;;;;;;;19.01;51.64;100713.23;1712591;83;21236;-60
2023/04/23 12:59:35;;;;;;;6.05;2.95;;;;;;;19.10;51.45;100717.47;1694508;82;21261;-59
2023/04/23 13:02:43;;;;;;;5.67;2.80;;;;;;;19.09;51.11;100721.30;1711724;82;21219;-59
2023/04/23 13:05:49;;;;;;;6.12;2.95;;;;;;;19.07;50.99;100717.92;1716397;81;21212;-60
2023/04/23 13:08:56;;;;;;;10.68;3.08;;;;;;;19.18;50.93;100725.53;1710022;82;21255;-60
2023/04/23 13:12:02;;;;;;;4.72;2.87;;;;;;;19.28;50.79;100712.03;1711362;82;21227;-59
2023/04/23 13:15:07;;;;;;;10.20;2.80;;;;;;;19.33;50.54;100713.59;1713151;83;21275;-60
2023/04/23 13:18:14;;;;;;;7.60;2.90;;;;;;;19.39;50.42;100708.22;1709607;82;21213;-58
2023/04/23 13:21:21;;;;;;;6.12;2.50;;;;;;;19.53;50.27;100711.20;1716236;81;21184;-59
2023/04/23 13:24:27;;;;;;;5.62;2.92;;;;;;;19.66;50.24;100701.38;1710129;82;21854;-59
2023/04/23 13:27:35;;;;;;;7.90;3.00;;;;;;;19.77;49.96;100696.48;1727735;82;21368;-59
2023/04/23 13:30:40;;;;;;;8.90;2.98;;;;;;;19.91;49.86;100698.05;1733735;82;21352;-60
2023/04/23 13:33:47;;;;;;;5.37;2.80;;;;;;;20.05;49.69;100696.83;1733236;82;21918;-60
2023/04/23 13:36:53;;;;;;;11.63;3.47;;;;;;;20.18;49.48;100702.29;1735428;82;21233;-60
2023/04/23 13:39:59;;;;;;;7.90;3.22;;;;;;;20.24;49.21;100701.36;1733938;82;21233;-59
2023/04/23 13:43:05;;;;;;;7.72;3.02;;;;;;;20.25;48.93;100700.27;1706368;84;21232;-59
2023/04/23 13:46:13;;;;;;;5.80;3.10;;;;;;;20.25;48.72;100702.52;1704800;83;21821;-59
2023/04/23 13:49:19;;;;;;;5.85;2.80;;;;;;;20.25;48.59;100705.83;1687314;83;21226;-60
2023/04/23 13:52:26;;;;;;;9.55;3.55;;;;;;;20.20;48.37;100704.30;1705512;83;21384;-59
2023/04/23 13:55:32;;;;;;;6.95;4.67;;;;;;;20.10;48.12;100713.14;1709005;82;21197;-60
2023/04/23 13:58:46;;;;;;;16.77;6.12;;;;;;;20.02;48.02;100719.00;1723271;82;21339;-60
2023/04/23 14:01:51;;;;;;;6.05;3.60;;;;;;;19.96;47.87;100713.50;1703865;83;21249;-60
2023/04/23 14:04:57;;;;;;;9.25;3.10;;;;;;;19.86;47.82;100723.75;1707307;82;21273;-60
2023/04/23 14:08:01;;;;;;;6.75;2.70;;;;;;;19.78;47.75;100719.86;1732217;82;21233;-60
2023/04/23 14:11:08;;;;;;;6.78;3.30;;;;;;;19.86;47.66;100727.05;1733392;82;21352;-60
2023/04/23 14:14:14;;;;;;;5.72;3.15;;;;;;;19.90;47.35;100724.15;1735760;82;21249;-60
2023/04/23 14:17:19;;;;;;;3.83;2.62;;;;;;;19.78;47.20;100731.50;1735998;82;21731;-59
2023/04/23 14:20:26;;;;;;;5.00;2.83;;;;;;;19.61;47.06;100741.48;1733730;82;21190;-60
2023/04/23 14:23:51;;;;;;;7.00;3.70;;;;;;;19.29;46.81;100737.88;1733738;82;21230;-60
2023/04/23 14:26:56;;;;;;;5.12;2.90;;;;;;;19.04;46.77;100732.21;1669439;84;21263;-59